createdAt,value
2023-04-12T00:01:07.332Z,8.45
2023-04-12T00:03:34.917Z,8.02
2023-04-12T00:06:03.679Z,11.27
2023-04-12T00:08:33.939Z,7.90
2023-04-12T00:11:02.981Z,7.55
2023-04-12T00:13:30.645Z,12.93
2023-04-12T00:15:57.576Z,8.80
2023-04-12T00:18:25.903Z,11.95
2023-04-12T00:20:53.464Z,7.00
2023-04-12T00:23:20.907Z,9.25
2023-04-12T00:25:48.252Z,5.78
2023-04-12T00:28:18.857Z,13.02
2023-04-12T00:30:46.575Z,10.55
2023-04-12T00:33:13.581Z,13.02
2023-04-12T00:35:40.579Z,7.95
2023-04-12T00:38:11.028Z,11.00
2023-04-12T00:40:43.020Z,10.43
2023-04-12T00:43:19.008Z,7.68
2023-04-12T00:45:47.497Z,16.23
2023-04-12T00:48:16.461Z,8.93
2023-04-12T00:50:45.039Z,7.95
2023-04-12T00:53:14.483Z,9.98
2023-04-12T00:55:44.920Z,7.65
2023-04-12T00:58:12.430Z,11.85
2023-04-12T01:00:39.379Z,7.85
2023-04-12T01:03:08.683Z,8.68
2023-04-12T01:05:49.416Z,6.50
2023-04-12T01:08:49.121Z,4.88
2023-04-12T01:11:29.389Z,4.32
2023-04-12T01:14:07.929Z,6.47
2023-04-12T01:16:44.665Z,4.85
2023-04-12T01:19:31.786Z,5.22
2023-04-12T01:22:19.155Z,8.23
2023-04-12T01:25:13.217Z,7.07
2023-04-12T01:27:47.023Z,5.07
2023-04-12T01:30:18.280Z,4.00
2023-04-12T01:32:51.813Z,5.57
2023-04-12T01:35:21.933Z,7.75
2023-04-12T01:37:48.900Z,8.23
2023-04-12T01:40:16.318Z,5.03
2023-04-12T01:42:43.214Z,4.63
2023-04-12T01:45:10.818Z,5.75
2023-04-12T01:47:38.802Z,4.70
2023-04-12T01:50:08.647Z,6.45
2023-04-12T01:52:41.392Z,5.43
2023-04-12T01:55:10.717Z,4.32
2023-04-12T01:57:39.249Z,4.78
2023-04-12T02:00:11.086Z,7.07
2023-04-12T02:02:40.269Z,7.45
2023-04-12T02:05:09.777Z,7.85
2023-04-12T02:07:37.561Z,6.88
2023-04-12T02:10:04.877Z,9.00
2023-04-12T02:12:32.098Z,10.10
2023-04-12T02:14:59.008Z,7.00
2023-04-12T02:17:26.124Z,6.93
2023-04-12T02:19:53.199Z,6.85
2023-04-12T02:22:20.103Z,7.53
2023-04-12T02:24:48.032Z,5.82
2023-04-12T02:27:14.890Z,8.57
2023-04-12T02:29:41.757Z,9.95
2023-04-12T02:32:08.591Z,8.90
2023-04-12T02:34:36.899Z,8.13
2023-04-12T02:37:04.961Z,8.15
2023-04-12T02:39:32.530Z,7.03
2023-04-12T02:41:59.417Z,6.15
2023-04-12T02:44:26.339Z,7.75
2023-04-12T02:46:53.287Z,6.35
2023-04-12T02:49:20.352Z,5.85
2023-04-12T02:51:47.495Z,6.50
2023-04-12T02:54:14.732Z,7.15
2023-04-12T02:56:41.577Z,6.72
2023-04-12T02:59:08.560Z,9.30
2023-04-12T03:01:35.693Z,10.57
2023-04-12T03:04:02.735Z,5.95
2023-04-12T03:06:30.721Z,7.50
2023-04-12T03:08:58.340Z,9.13
2023-04-12T03:11:25.186Z,10.35
2023-04-12T03:13:52.844Z,8.80
2023-04-12T03:16:26.345Z,9.73
2023-04-12T03:18:53.314Z,6.03
2023-04-12T03:21:20.364Z,7.88
2023-04-12T03:23:47.229Z,10.07
2023-04-12T03:26:14.406Z,6.82
2023-04-12T03:28:41.661Z,10.38
2023-04-12T03:31:08.983Z,5.03
2023-04-12T03:33:36.243Z,8.68
2023-04-12T03:36:03.480Z,6.88
2023-04-12T03:38:30.700Z,10.18
2023-04-12T03:40:57.620Z,7.35
2023-04-12T03:43:24.478Z,6.68
2023-04-12T03:45:51.720Z,10.30
2023-04-12T03:48:18.674Z,6.22
2023-04-12T03:50:45.727Z,9.65
2023-04-12T03:53:12.887Z,12.88
2023-04-12T03:55:39.790Z,11.43
2023-04-12T03:58:06.865Z,15.95
2023-04-12T04:00:34.037Z,10.57
2023-04-12T04:03:03.775Z,9.30
2023-04-12T04:05:31.596Z,7.45
2023-04-12T04:08:02.826Z,10.50
2023-04-12T04:10:30.088Z,12.88
2023-04-12T04:12:57.041Z,12.77
2023-04-12T04:15:26.092Z,8.85
2023-04-12T04:17:53.076Z,8.82
2023-04-12T04:20:20.800Z,12.45
2023-04-12T04:22:50.345Z,7.88
2023-04-12T04:25:17.253Z,8.90
2023-04-12T04:27:47.386Z,10.77
2023-04-12T04:30:15.543Z,6.30
2023-04-12T04:32:43.425Z,11.00
2023-04-12T04:35:10.393Z,8.65
2023-04-12T04:37:37.383Z,7.05
2023-04-12T04:40:24.396Z,8.00
2023-04-12T04:42:58.094Z,9.05
2023-04-12T04:45:27.068Z,8.88
2023-04-12T04:47:57.264Z,12.73
2023-04-12T04:50:26.920Z,7.20
2023-04-12T04:52:54.160Z,9.70
2023-04-12T04:55:28.115Z,7.00
2023-04-12T04:57:54.968Z,8.65
2023-04-12T05:00:22.072Z,14.05
2023-04-12T05:02:49.040Z,13.60
2023-04-12T05:05:16.262Z,14.85
2023-04-12T05:07:43.753Z,9.63
2023-04-12T05:10:11.784Z,15.48
2023-04-12T05:12:38.826Z,9.85
2023-04-12T05:15:11.587Z,11.35
2023-04-12T05:17:39.095Z,14.27
2023-04-12T05:20:08.628Z,21.65
2023-04-12T05:22:35.935Z,9.35
2023-04-12T05:25:04.335Z,14.30
2023-04-12T05:27:31.474Z,12.45
2023-04-12T05:29:58.594Z,11.68
2023-04-12T05:32:26.410Z,17.98
2023-04-12T05:34:53.385Z,9.38
2023-04-12T05:37:20.649Z,11.68
2023-04-12T05:39:47.505Z,11.70
2023-04-12T05:42:14.361Z,12.13
2023-04-12T05:44:41.812Z,10.70
2023-04-12T05:47:08.728Z,12.60
2023-04-12T05:49:35.803Z,8.85
2023-04-12T05:52:03.902Z,7.35
2023-04-12T05:54:31.130Z,9.70
2023-04-12T05:56:58.077Z,7.10
2023-04-12T05:59:24.965Z,12.30
2023-04-12T06:01:51.892Z,6.45
2023-04-12T06:04:19.045Z,5.35
2023-04-12T06:06:46.126Z,11.63
2023-04-12T06:09:13.465Z,10.20
2023-04-12T06:11:40.408Z,7.60
2023-04-12T06:14:08.040Z,14.75
2023-04-12T06:16:36.289Z,10.10
2023-04-12T06:19:03.325Z,8.93
2023-04-12T06:21:30.306Z,8.20
2023-04-12T06:23:57.272Z,8.60
2023-04-12T06:26:24.502Z,9.13
2023-04-12T06:28:54.598Z,4.68
2023-04-12T06:31:21.892Z,5.63
2023-04-12T06:33:50.574Z,5.70
2023-04-12T06:36:17.812Z,5.75
2023-04-12T06:38:44.766Z,3.60
2023-04-12T06:41:12.205Z,4.80
2023-04-12T06:43:39.119Z,5.30
2023-04-12T06:46:06.625Z,6.93
2023-04-12T06:48:33.776Z,4.78
2023-04-12T06:51:00.719Z,6.05
2023-04-12T06:53:27.648Z,3.50
2023-04-12T06:55:54.584Z,5.85
2023-04-12T06:58:21.477Z,7.40
2023-04-12T07:00:48.498Z,6.30
2023-04-12T07:03:15.629Z,5.57
2023-04-12T07:05:47.597Z,4.63
2023-04-12T07:08:14.536Z,9.32
2023-04-12T07:10:41.877Z,7.63
2023-04-12T07:13:08.788Z,4.65
2023-04-12T07:15:35.745Z,4.65
2023-04-12T07:18:02.726Z,4.70
2023-04-12T07:20:29.671Z,5.50
2023-04-12T07:22:56.907Z,4.40
2023-04-12T07:25:23.857Z,9.60
2023-04-12T07:27:51.782Z,6.35
2023-04-12T07:30:19.102Z,6.85
2023-04-12T07:32:46.249Z,5.30
2023-04-12T07:35:13.350Z,6.72
2023-04-12T07:37:40.526Z,5.10
2023-04-12T07:40:08.261Z,5.13
2023-04-12T07:42:35.162Z,4.05
2023-04-12T07:45:02.090Z,4.85
2023-04-12T07:47:29.170Z,5.75
2023-04-12T07:49:57.696Z,4.20
2023-04-12T07:52:25.458Z,5.35
2023-04-12T07:54:52.320Z,5.65
2023-04-12T07:57:19.159Z,6.63
2023-04-12T07:59:46.029Z,10.85
2023-04-12T08:02:13.257Z,8.40
2023-04-12T08:04:44.460Z,5.50
2023-04-12T08:07:11.732Z,9.48
2023-04-12T08:09:39.025Z,6.15
2023-04-12T08:12:06.158Z,6.07
2023-04-12T08:14:33.061Z,7.00
2023-04-12T08:16:59.934Z,9.07
2023-04-12T08:19:27.493Z,10.32
2023-04-12T08:21:54.834Z,10.02
2023-04-12T08:24:21.788Z,7.15
2023-04-12T08:26:48.699Z,8.95
2023-04-12T08:29:16.111Z,10.80
2023-04-12T08:31:43.222Z,6.85
2023-04-12T08:34:10.271Z,8.68
2023-04-12T08:36:37.203Z,8.70
2023-04-12T08:39:04.246Z,6.05
2023-04-12T08:41:31.586Z,11.45
2023-04-12T08:43:59.971Z,9.85
2023-04-12T08:46:28.450Z,10.73
2023-04-12T08:48:55.607Z,10.73
2023-04-12T08:51:23.130Z,7.07
2023-04-12T08:53:51.210Z,6.88
2023-04-12T08:56:19.444Z,7.65
2023-04-12T08:58:51.480Z,8.70
2023-04-12T09:01:21.220Z,10.35
2023-04-12T09:03:48.494Z,7.85
2023-04-12T09:06:15.948Z,7.78
2023-04-12T09:08:57.136Z,7.05
2023-04-12T09:11:27.529Z,9.35
2023-04-12T09:13:58.949Z,6.45
2023-04-12T09:16:41.523Z,5.07
2023-04-12T09:19:10.109Z,6.38
2023-04-12T09:21:37.401Z,6.05
2023-04-12T09:24:13.362Z,8.35
2023-04-12T09:26:41.054Z,7.75
2023-04-12T09:29:24.937Z,6.43
2023-04-12T09:31:58.504Z,10.00
2023-04-12T09:34:26.644Z,11.35
2023-04-12T09:36:54.812Z,13.25
2023-04-12T09:39:34.538Z,8.20
2023-04-12T09:42:25.445Z,11.02
2023-04-12T09:44:58.950Z,10.23
2023-04-12T09:47:40.563Z,17.13
2023-04-12T09:50:10.231Z,10.13
2023-04-12T09:52:41.045Z,8.50
2023-04-12T09:55:11.961Z,12.52
2023-04-12T09:57:42.429Z,7.65
2023-04-12T10:00:18.882Z,10.88
2023-04-12T10:02:52.779Z,12.90
2023-04-12T10:05:28.367Z,9.10
2023-04-12T10:07:57.011Z,11.45
2023-04-12T10:10:24.336Z,9.32
2023-04-12T10:12:51.878Z,9.25
2023-04-12T10:15:21.461Z,12.20
2023-04-12T10:17:52.760Z,7.15
2023-04-12T10:20:23.354Z,12.85
2023-04-12T10:22:53.542Z,15.93
2023-04-12T10:25:24.046Z,8.73
2023-04-12T10:27:51.577Z,13.68
2023-04-12T10:30:38.748Z,13.10
2023-04-12T10:33:05.811Z,10.32
2023-04-12T10:36:01.150Z,12.52
2023-04-12T10:38:32.979Z,10.02
2023-04-12T10:41:16.006Z,11.55
2023-04-12T10:43:46.383Z,8.18
2023-04-12T10:46:38.881Z,10.95
2023-04-12T10:49:14.641Z,9.52
2023-04-12T10:52:02.074Z,9.65
2023-04-12T10:54:29.817Z,9.13
2023-04-12T10:56:57.700Z,7.80
2023-04-12T10:59:31.426Z,10.70
2023-04-12T11:02:12.765Z,10.70
2023-04-12T11:05:10.540Z,10.43
2023-04-12T11:07:43.246Z,9.88
2023-04-12T11:10:20.303Z,8.02
2023-04-12T11:12:54.888Z,7.00
2023-04-12T11:15:25.989Z,7.05
2023-04-12T11:17:57.959Z,5.00
2023-04-12T11:20:30.143Z,6.45
2023-04-12T11:22:57.394Z,9.18
2023-04-12T11:25:24.873Z,7.43
2023-04-12T11:27:55.005Z,7.40
2023-04-12T11:30:23.764Z,11.02
2023-04-12T11:32:50.931Z,8.55
2023-04-12T11:35:20.679Z,9.20
2023-04-12T11:37:48.095Z,7.35
2023-04-12T11:40:15.299Z,10.82
2023-04-12T11:42:42.737Z,11.85
2023-04-12T11:45:17.200Z,8.95
2023-04-12T11:47:46.837Z,8.35
2023-04-12T11:50:13.939Z,10.70
2023-04-12T11:52:41.513Z,6.82
2023-04-12T11:55:11.438Z,9.68
2023-04-12T11:57:40.048Z,8.02
2023-04-12T12:00:07.864Z,7.22
2023-04-12T12:02:43.690Z,8.07
2023-04-12T12:05:17.048Z,6.68
2023-04-12T12:07:44.402Z,3.85
2023-04-12T12:10:16.404Z,6.43
2023-04-12T12:12:48.329Z,3.45
2023-04-12T12:15:16.811Z,7.53
2023-04-12T12:17:43.999Z,5.22
2023-04-12T12:20:21.862Z,6.78
2023-04-12T12:22:49.486Z,7.55
2023-04-12T12:25:19.352Z,6.55
2023-04-12T12:27:50.629Z,6.60
2023-04-12T12:30:20.548Z,8.10
2023-04-12T12:32:52.642Z,5.65
2023-04-12T12:35:19.711Z,7.15
2023-04-12T12:37:52.801Z,7.60
2023-04-12T12:40:31.762Z,7.80
2023-04-12T12:42:58.899Z,9.02
2023-04-12T12:45:28.406Z,7.03
2023-04-12T12:47:58.927Z,8.13
2023-04-12T12:50:34.537Z,8.95
2023-04-12T12:53:02.514Z,8.25
2023-04-12T12:55:31.341Z,7.78
2023-04-12T13:00:30.025Z,6.70
2023-04-12T13:02:57.285Z,9.27
2023-04-12T13:05:24.698Z,5.07
2023-04-12T13:07:51.592Z,7.07
2023-04-12T13:10:18.488Z,3.92
2023-04-12T13:12:46.250Z,8.27
2023-04-12T13:17:44.165Z,2.38
2023-04-12T13:20:11.355Z,3.50
2023-04-12T13:22:38.337Z,3.33
2023-04-12T13:25:05.859Z,3.47
2023-04-12T13:27:33.198Z,5.30
2023-04-12T13:30:00.505Z,3.90
2023-04-12T13:32:27.700Z,7.53
2023-04-12T13:34:54.760Z,2.75
2023-04-12T13:37:21.679Z,8.38
2023-04-12T13:39:50.567Z,9.40
2023-04-12T13:42:17.528Z,10.02
2023-04-12T13:44:44.598Z,6.80
2023-04-12T13:47:11.694Z,6.35
2023-04-12T13:49:38.754Z,3.78
2023-04-12T13:52:06.035Z,4.63
2023-04-12T13:54:33.309Z,4.50
2023-04-12T13:57:00.475Z,6.15
2023-04-12T13:59:27.375Z,4.90
2023-04-12T14:01:54.824Z,5.00
2023-04-12T14:04:22.307Z,4.70
2023-04-12T14:06:49.791Z,6.07
2023-04-12T14:09:30.289Z,3.80
2023-04-12T14:11:59.210Z,3.40
2023-04-12T14:14:27.729Z,3.22
2023-04-12T14:16:59.146Z,4.85
2023-04-12T14:19:26.706Z,4.60
2023-04-12T14:21:53.937Z,5.10
2023-04-12T14:24:22.206Z,4.10
2023-04-12T14:26:50.430Z,2.53
2023-04-12T14:29:17.817Z,2.38
2023-04-12T14:31:44.932Z,1.88
2023-04-12T14:34:13.758Z,3.08
2023-04-12T14:36:41.188Z,2.58
2023-04-12T14:39:11.640Z,3.40
2023-04-12T14:41:40.769Z,3.50
2023-04-12T14:44:07.629Z,2.00
2023-04-12T14:46:34.569Z,2.47
2023-04-12T14:49:01.782Z,3.65
2023-04-12T14:51:29.856Z,4.68
2023-04-12T14:53:57.581Z,4.63
2023-04-12T14:56:28.855Z,5.00
2023-04-12T14:58:57.578Z,4.05
2023-04-12T15:01:26.099Z,3.97
2023-04-12T15:03:53.878Z,8.20
2023-04-12T15:06:26.198Z,5.15
2023-04-12T15:08:57.561Z,4.75
2023-04-12T15:11:27.470Z,3.08
2023-04-12T15:13:55.677Z,3.60
2023-04-12T15:16:23.431Z,6.60
2023-04-12T15:18:52.052Z,4.47
2023-04-12T15:21:19.504Z,4.85
2023-04-12T15:23:47.556Z,4.90
2023-04-12T15:26:14.636Z,4.32
2023-04-12T15:28:42.497Z,9.43
2023-04-12T15:31:09.850Z,7.15
2023-04-12T15:33:37.523Z,8.00
2023-04-12T15:36:05.743Z,8.18
2023-04-12T15:38:32.758Z,6.32
2023-04-12T15:41:01.710Z,4.95
2023-04-12T15:43:29.242Z,3.42
2023-04-12T15:45:57.286Z,3.90
2023-04-12T15:48:25.960Z,5.38
2023-04-12T15:50:56.026Z,9.45
2023-04-12T15:53:27.749Z,7.68
2023-04-12T15:55:55.368Z,4.35
2023-04-12T15:58:27.507Z,6.72
2023-04-12T16:00:54.983Z,4.65
2023-04-12T16:03:27.017Z,7.57
2023-04-12T16:05:54.456Z,5.70
2023-04-12T16:08:22.869Z,5.05
2023-04-12T16:10:51.581Z,5.38
2023-04-12T16:13:18.910Z,4.15
2023-04-12T16:15:47.374Z,4.75
2023-04-12T16:18:14.616Z,4.00
2023-04-12T16:20:42.174Z,6.97
2023-04-12T16:23:10.952Z,4.65
2023-04-12T16:25:38.714Z,4.53
2023-04-12T16:28:08.019Z,4.55
2023-04-12T16:30:36.219Z,4.13
2023-04-12T16:33:04.420Z,8.60
2023-04-12T16:35:32.826Z,3.03
2023-04-12T16:38:03.350Z,4.15
2023-04-12T16:40:31.166Z,2.50
2023-04-12T16:42:58.633Z,3.90
2023-04-12T16:45:26.692Z,4.28
2023-04-12T16:47:54.650Z,6.53
2023-04-12T16:50:24.153Z,7.80
2023-04-12T16:52:51.913Z,5.22
2023-04-12T16:55:19.034Z,5.55
2023-04-12T16:57:46.558Z,3.80
2023-04-12T17:00:23.008Z,5.85
2023-04-12T17:02:52.619Z,5.28
2023-04-12T17:05:22.161Z,5.05
2023-04-12T17:07:54.905Z,7.25
2023-04-12T17:10:24.825Z,9.02
2023-04-12T17:12:56.055Z,5.60
2023-04-12T17:15:23.754Z,3.53
2023-04-12T17:18:03.290Z,4.05
2023-04-12T17:20:32.273Z,8.45
2023-04-12T17:23:00.892Z,8.13
2023-04-12T17:25:33.567Z,4.60
2023-04-12T17:28:12.090Z,5.97
2023-04-12T17:30:40.805Z,4.22
2023-04-12T17:33:09.136Z,3.95
2023-04-12T17:35:37.630Z,7.35
2023-04-12T17:38:05.322Z,3.65
2023-04-12T17:40:36.281Z,5.38
2023-04-12T17:43:04.435Z,7.32
2023-04-12T17:45:32.446Z,4.95
2023-04-12T17:48:00.124Z,4.53
2023-04-12T17:50:27.411Z,7.05
2023-04-12T17:52:56.764Z,7.63
2023-04-12T17:55:26.947Z,7.88
2023-04-12T17:57:54.540Z,8.48
2023-04-12T18:00:23.955Z,7.68
2023-04-12T18:02:51.749Z,5.72
2023-04-12T18:05:19.243Z,8.35
2023-04-12T18:07:46.292Z,4.53
2023-04-12T18:10:16.285Z,4.10
2023-04-12T18:12:45.413Z,2.97
2023-04-12T18:15:12.947Z,5.95
2023-04-12T18:17:40.114Z,3.03
2023-04-12T18:20:10.964Z,3.38
2023-04-12T18:22:39.324Z,5.13
2023-04-12T18:25:08.445Z,3.55
2023-04-12T18:27:36.056Z,4.28
2023-04-12T18:30:03.626Z,4.95
2023-04-12T18:32:30.994Z,2.13
2023-04-12T18:34:58.164Z,2.67
2023-04-12T18:37:25.212Z,1.70
2023-04-12T18:39:53.460Z,2.35
2023-04-12T18:42:20.611Z,1.30
2023-04-12T18:44:47.803Z,2.80
2023-04-12T18:47:14.729Z,2.38
2023-04-12T18:49:41.721Z,2.50
2023-04-12T18:52:08.927Z,3.00
2023-04-12T18:54:35.973Z,4.50
2023-04-12T18:57:03.919Z,2.85
2023-04-12T18:59:31.414Z,6.80
2023-04-12T19:01:58.562Z,1.95
2023-04-12T19:04:25.697Z,2.65
2023-04-12T19:06:53.376Z,5.03
2023-04-12T19:09:20.704Z,3.90
2023-04-12T19:11:47.772Z,3.42
2023-04-12T19:14:14.999Z,4.20
2023-04-12T19:16:42.093Z,4.07
2023-04-12T19:19:09.098Z,3.58
2023-04-12T19:21:36.543Z,2.58
2023-04-12T19:24:03.985Z,2.97
2023-04-12T19:26:32.722Z,3.42
2023-04-12T19:28:59.946Z,2.45
2023-04-12T19:31:27.327Z,1.67
2023-04-12T19:33:56.154Z,4.00
2023-04-12T19:36:26.153Z,2.80
2023-04-12T19:38:53.233Z,2.17
2023-04-12T19:41:20.967Z,2.72
2023-04-12T19:43:48.086Z,2.97
2023-04-12T19:46:16.405Z,1.50
2023-04-12T19:48:43.510Z,2.25
2023-04-12T19:51:10.577Z,2.65
2023-04-12T19:53:37.831Z,1.23
2023-04-12T19:56:05.375Z,2.13
2023-04-12T19:58:32.541Z,1.27
2023-04-12T20:01:03.064Z,5.28
2023-04-12T20:03:30.696Z,1.75
2023-04-12T20:06:04.403Z,2.33
2023-04-12T20:08:32.338Z,3.55
2023-04-12T20:11:00.747Z,3.67
2023-04-12T20:13:29.015Z,1.98
2023-04-12T20:15:56.727Z,3.55
2023-04-12T20:18:24.774Z,5.00
2023-04-12T20:20:53.666Z,2.40
2023-04-12T20:23:20.848Z,2.58
2023-04-12T20:25:49.537Z,2.30
2023-04-12T20:28:16.984Z,1.15
2023-04-12T20:30:47.271Z,1.50
2023-04-12T20:33:15.552Z,1.95
2023-04-12T20:35:42.919Z,2.22
2023-04-12T20:38:10.307Z,4.35
2023-04-12T20:40:38.234Z,2.05
2023-04-12T20:43:06.309Z,3.97
2023-04-12T20:45:35.702Z,1.90
2023-04-12T20:48:04.410Z,3.90
2023-04-12T20:50:34.643Z,3.80
2023-04-12T20:53:02.922Z,2.05
2023-04-12T20:55:33.158Z,2.08
2023-04-12T20:58:01.549Z,2.50
2023-04-12T21:00:29.923Z,2.60
2023-04-12T21:02:58.439Z,3.42
2023-04-12T21:05:27.649Z,2.97
2023-04-12T21:07:55.129Z,2.08
2023-04-12T21:10:22.490Z,4.38
2023-04-12T21:12:50.401Z,1.70
2023-04-12T21:15:22.235Z,2.22
2023-04-12T21:17:50.942Z,3.40
2023-04-12T21:20:18.771Z,4.50
2023-04-12T21:22:48.027Z,3.95
2023-04-12T21:25:17.050Z,3.00
2023-04-12T21:27:46.609Z,4.68
2023-04-12T21:30:14.625Z,6.57
2023-04-12T21:32:42.347Z,2.60
2023-04-12T21:35:11.394Z,2.83
2023-04-12T21:37:39.599Z,7.40
2023-04-12T21:40:12.967Z,3.63
2023-04-12T21:42:41.261Z,4.40
2023-04-12T21:45:10.062Z,3.70
2023-04-12T21:47:39.889Z,4.32
2023-04-12T21:50:10.993Z,4.10
2023-04-12T21:52:38.691Z,3.88
2023-04-12T21:55:06.170Z,4.47
2023-04-12T21:57:34.545Z,2.10
2023-04-12T22:00:05.497Z,1.95
2023-04-12T22:02:32.744Z,2.58
2023-04-12T22:04:59.803Z,2.05
2023-04-12T22:07:26.963Z,2.67
2023-04-12T22:09:53.989Z,3.03
2023-04-12T22:12:21.438Z,3.90
2023-04-12T22:14:50.140Z,2.10
2023-04-12T22:17:18.978Z,2.53
2023-04-12T22:19:46.342Z,3.03
2023-04-12T22:22:15.671Z,1.08
2023-04-12T22:24:42.849Z,3.15
2023-04-12T22:27:09.787Z,2.53
2023-04-12T22:29:38.002Z,2.83
2023-04-12T22:32:05.201Z,3.13
2023-04-12T22:34:32.716Z,2.97
2023-04-12T22:36:59.626Z,2.17
2023-04-12T22:39:27.142Z,3.83
2023-04-12T22:41:57.651Z,6.10
2023-04-12T22:44:26.468Z,3.13
2023-04-12T22:46:56.926Z,6.50
2023-04-12T22:49:28.533Z,4.45
2023-04-12T22:51:56.066Z,2.55
2023-04-12T22:54:24.951Z,5.15
2023-04-12T22:56:52.228Z,7.63
2023-04-12T22:59:20.367Z,6.53
2023-04-12T23:01:47.760Z,5.68
2023-04-12T23:04:16.125Z,5.45
2023-04-12T23:06:44.277Z,9.18
2023-04-12T23:09:12.713Z,6.53
2023-04-12T23:11:42.248Z,3.42
2023-04-12T23:14:10.083Z,8.07
2023-04-12T23:16:42.644Z,5.97
2023-04-12T23:19:12.793Z,6.57
2023-04-12T23:21:40.830Z,5.32
2023-04-12T23:24:08.689Z,4.45
2023-04-12T23:26:36.170Z,6.70
2023-04-12T23:29:04.607Z,6.60
2023-04-12T23:31:32.539Z,7.95
2023-04-12T23:34:03.588Z,5.78
2023-04-12T23:36:30.912Z,6.90
2023-04-12T23:39:00.902Z,9.60
2023-04-12T23:41:28.082Z,6.82
2023-04-12T23:43:55.337Z,11.45
2023-04-12T23:46:22.763Z,9.13
2023-04-12T23:48:49.772Z,6.30
2023-04-12T23:51:17.253Z,7.70
2023-04-12T23:53:44.171Z,7.32
2023-04-12T23:56:11.427Z,11.55
2023-04-12T23:58:38.703Z,8.75
